createdAt,value
2023-04-18T00:02:17.718Z,82.25
2023-04-18T00:04:51.010Z,82.55
2023-04-18T00:07:22.108Z,81.81
2023-04-18T00:09:51.687Z,82.40
2023-04-18T00:12:26.524Z,83.02
2023-04-18T00:14:58.629Z,82.67
2023-04-18T00:17:35.236Z,83.37
2023-04-18T00:20:08.059Z,82.84
2023-04-18T00:22:42.851Z,82.62
2023-04-18T00:25:15.822Z,82.79
2023-04-18T00:27:46.039Z,82.50
2023-04-18T00:30:25.219Z,83.15
2023-04-18T00:32:53.905Z,83.21
2023-04-18T00:35:25.609Z,83.82
2023-04-18T00:37:55.931Z,83.67
2023-04-18T00:40:27.801Z,84.40
2023-04-18T00:43:06.420Z,84.25
2023-04-18T00:45:41.911Z,84.08
2023-04-18T00:48:13.969Z,83.93
2023-04-18T00:50:45.228Z,83.21
2023-04-18T00:53:19.134Z,84.36
2023-04-18T00:55:51.324Z,83.73
2023-04-18T00:58:23.898Z,84.74
2023-04-18T01:00:55.108Z,85.14
2023-04-18T01:03:24.284Z,85.18
2023-04-18T01:05:52.798Z,86.14
2023-04-18T01:08:29.944Z,86.24
2023-04-18T01:11:04.651Z,86.23
2023-04-18T01:13:46.479Z,86.77
2023-04-18T01:16:17.074Z,85.49
2023-04-18T01:18:49.130Z,85.75
2023-04-18T01:21:31.209Z,86.51
2023-04-18T01:24:15.528Z,85.25
2023-04-18T01:26:51.298Z,86.35
2023-04-18T01:29:22.315Z,86.64
2023-04-18T01:31:57.480Z,86.83
2023-04-18T01:34:27.539Z,86.18
2023-04-18T01:36:55.865Z,86.89
2023-04-18T01:39:33.357Z,86.56
2023-04-18T01:42:04.906Z,86.84
2023-04-18T01:44:39.182Z,86.09
2023-04-18T01:47:09.857Z,86.04
2023-04-18T01:49:42.985Z,85.81
2023-04-18T01:52:14.745Z,86.19
2023-04-18T01:54:51.911Z,85.49
2023-04-18T01:57:21.035Z,86.85
2023-04-18T01:59:54.313Z,85.94
2023-04-18T02:02:34.425Z,85.91
2023-04-18T02:05:06.178Z,85.98
2023-04-18T02:07:37.261Z,85.90
2023-04-18T02:10:21.227Z,85.33
2023-04-18T02:12:52.188Z,85.83
2023-04-18T02:15:24.587Z,86.34
2023-04-18T02:17:56.449Z,86.01
2023-04-18T02:20:31.572Z,87.11
2023-04-18T02:23:04.934Z,85.48
2023-04-18T02:25:41.368Z,86.49
2023-04-18T02:28:14.239Z,88.21
2023-04-18T02:30:47.921Z,87.10
2023-04-18T02:33:19.503Z,86.62
2023-04-18T02:35:56.556Z,86.07
2023-04-18T02:38:29.025Z,86.91
2023-04-18T02:41:17.481Z,86.74
2023-04-18T02:43:48.310Z,86.20
2023-04-18T02:46:22.174Z,87.47
2023-04-18T02:48:56.415Z,87.92
2023-04-18T02:51:30.857Z,87.36
2023-04-18T02:54:03.384Z,87.78
2023-04-18T02:57:02.441Z,87.50
2023-04-18T03:00:14.308Z,87.65
2023-04-18T03:03:06.435Z,87.92
2023-04-18T03:05:54.903Z,87.90
2023-04-18T03:08:24.539Z,87.37
2023-04-18T03:10:58.301Z,88.13
2023-04-18T03:13:34.302Z,87.49
2023-04-18T03:16:06.386Z,87.16
2023-04-18T03:18:41.239Z,88.12
2023-04-18T03:21:15.344Z,88.39
2023-04-18T03:23:53.156Z,86.92
2023-04-18T03:26:33.645Z,87.49
2023-04-18T03:29:06.361Z,86.79
2023-04-18T03:31:35.190Z,87.33
2023-04-18T03:34:03.955Z,87.63
2023-04-18T03:36:35.809Z,87.33
2023-04-18T03:39:10.969Z,87.46
2023-04-18T03:41:46.442Z,87.93
2023-04-18T03:44:20.359Z,87.62
2023-04-18T03:46:52.256Z,88.15
2023-04-18T03:49:22.191Z,87.80
2023-04-18T03:51:52.115Z,87.75
2023-04-18T03:54:23.528Z,88.06
2023-04-18T03:56:59.534Z,88.35
2023-04-18T03:59:36.069Z,88.70
2023-04-18T04:02:05.492Z,90.02
2023-04-18T04:04:33.794Z,89.32
2023-04-18T04:07:03.355Z,89.02
2023-04-18T04:09:43.091Z,89.14
2023-04-18T04:12:20.031Z,89.71
2023-04-18T04:14:52.972Z,88.17
2023-04-18T04:17:22.109Z,88.84
2023-04-18T04:19:53.793Z,88.79
2023-04-18T04:22:29.696Z,88.92
2023-04-18T04:25:01.408Z,88.81
2023-04-18T04:27:45.498Z,89.11
2023-04-18T04:30:37.202Z,88.79
2023-04-18T04:33:09.692Z,88.62
2023-04-18T04:35:43.313Z,88.97
2023-04-18T04:38:19.934Z,88.92
2023-04-18T04:40:50.946Z,88.88
2023-04-18T04:43:22.272Z,89.23
2023-04-18T04:45:57.805Z,89.76
2023-04-18T04:48:32.149Z,90.48
2023-04-18T04:51:04.151Z,89.45
2023-04-18T04:53:33.284Z,90.01
2023-04-18T04:56:06.259Z,90.58
2023-04-18T04:58:35.509Z,90.66
2023-04-18T05:02:05.544Z,90.60
2023-04-18T05:04:36.738Z,91.53
2023-04-18T05:07:09.908Z,90.99
2023-04-18T05:09:44.134Z,91.05
2023-04-18T05:12:13.337Z,90.94
2023-04-18T05:14:42.649Z,91.50
2023-04-18T05:17:13.527Z,91.43
2023-04-18T05:19:56.760Z,91.66
2023-04-18T05:22:26.639Z,91.99
2023-04-18T05:24:58.043Z,91.97
2023-04-18T05:27:30.142Z,92.24
2023-04-18T05:30:04.542Z,92.15
2023-04-18T05:32:48.574Z,92.18
2023-04-18T05:35:19.860Z,92.86
2023-04-18T05:37:54.134Z,93.24
2023-04-18T05:40:27.352Z,92.80
2023-04-18T05:43:04.252Z,93.54
2023-04-18T05:45:35.130Z,93.38
2023-04-18T05:48:08.997Z,92.37
2023-04-18T05:50:37.400Z,93.17
2023-04-18T05:53:14.658Z,93.47
2023-04-18T05:55:45.010Z,92.12
2023-04-18T05:58:15.521Z,92.04
2023-04-18T06:00:50.512Z,92.72
2023-04-18T06:03:22.532Z,91.80
2023-04-18T06:05:54.820Z,91.67
2023-04-18T06:08:30.899Z,91.96
2023-04-18T06:11:00.230Z,90.89
2023-04-18T06:13:34.778Z,91.56
2023-04-18T06:16:04.752Z,91.43
2023-04-18T06:18:36.983Z,92.17
2023-04-18T06:21:11.174Z,90.54
2023-04-18T06:23:47.563Z,91.99
2023-04-18T06:26:26.202Z,91.20
2023-04-18T06:28:57.010Z,90.70
2023-04-18T06:31:25.222Z,92.54
2023-04-18T06:33:57.013Z,92.23
2023-04-18T06:36:26.937Z,90.99
2023-04-18T06:38:59.700Z,91.05
2023-04-18T06:41:29.010Z,91.58
2023-04-18T06:46:59.410Z,92.14
2023-04-18T06:49:34.534Z,91.46
2023-04-18T06:52:03.880Z,91.29
2023-04-18T06:54:34.475Z,91.02
2023-04-18T06:57:06.152Z,90.69
2023-04-18T06:59:38.199Z,90.98
2023-04-18T07:02:10.889Z,90.39
2023-04-18T07:04:45.277Z,90.41
2023-04-18T07:07:18.196Z,89.39
2023-04-18T07:09:49.870Z,89.80
2023-04-18T07:12:19.387Z,89.98
2023-04-18T07:14:50.341Z,89.91
2023-04-18T07:17:20.848Z,90.36
2023-04-18T07:19:58.186Z,90.37
2023-04-18T07:22:27.560Z,89.96
2023-04-18T07:25:03.876Z,89.21
2023-04-18T07:27:36.795Z,89.59
2023-04-18T07:30:05.956Z,90.08
2023-04-18T07:32:43.734Z,88.59
2023-04-18T07:35:24.472Z,90.61
2023-04-18T07:38:01.532Z,89.67
2023-04-18T07:40:33.559Z,89.21
2023-04-18T07:43:04.107Z,90.20
2023-04-18T07:45:38.832Z,89.69
2023-04-18T07:48:16.235Z,89.64
2023-04-18T07:50:53.460Z,89.70
2023-04-18T07:53:22.607Z,88.76
2023-04-18T07:55:51.797Z,89.01
2023-04-18T07:58:23.419Z,88.80
2023-04-18T08:00:52.308Z,88.36
2023-04-18T08:03:22.537Z,89.02
2023-04-18T08:05:57.594Z,88.82
2023-04-18T08:08:34.044Z,88.31
2023-04-18T08:11:05.500Z,88.28
2023-04-18T08:13:35.131Z,88.43
2023-04-18T08:16:06.069Z,86.59
2023-04-18T08:18:37.112Z,86.22
2023-04-18T08:21:09.060Z,86.79
2023-04-18T08:23:38.716Z,85.66
2023-04-18T08:26:09.649Z,85.37
2023-04-18T08:28:39.095Z,84.84
2023-04-18T08:31:15.186Z,84.37
2023-04-18T08:33:53.875Z,85.45
2023-04-18T08:36:28.370Z,85.44
2023-04-18T08:39:04.318Z,84.45
2023-04-18T08:41:37.287Z,83.36
2023-04-18T08:44:07.919Z,82.35
2023-04-18T08:46:37.869Z,83.10
2023-04-18T08:49:12.220Z,81.27
2023-04-18T08:51:46.384Z,81.59
2023-04-18T08:54:24.593Z,81.25
2023-04-18T08:57:08.905Z,80.42
2023-04-18T08:59:37.265Z,80.40
2023-04-18T09:02:09.014Z,79.87
2023-04-18T09:04:52.736Z,79.20
2023-04-18T09:07:31.835Z,79.47
2023-04-18T09:10:05.924Z,78.99
2023-04-18T09:12:45.388Z,78.15
2023-04-18T09:15:23.794Z,77.72
2023-04-18T09:18:04.961Z,76.58
2023-04-18T09:20:37.708Z,76.61
2023-04-18T09:23:22.417Z,76.21
2023-04-18T09:26:00.241Z,75.80
2023-04-18T09:28:33.240Z,75.04
2023-04-18T09:31:09.635Z,74.66
2023-04-18T09:33:40.050Z,74.95
2023-04-18T09:36:25.200Z,74.88
2023-04-18T09:39:01.021Z,74.86
2023-04-18T09:41:32.728Z,74.88
2023-04-18T09:44:14.952Z,75.23
2023-04-18T09:46:49.617Z,75.59
2023-04-18T09:49:20.049Z,75.69
2023-04-18T09:51:53.988Z,75.57
2023-04-18T09:54:32.209Z,75.21
2023-04-18T09:57:03.553Z,75.99
2023-04-18T09:59:43.810Z,75.58
2023-04-18T10:02:18.866Z,74.60
2023-04-18T10:04:56.589Z,75.05
2023-04-18T10:07:35.167Z,74.71
2023-04-18T10:10:11.093Z,74.74
2023-04-18T10:12:40.185Z,73.96
2023-04-18T10:15:11.909Z,73.09
2023-04-18T10:18:02.861Z,72.71
2023-04-18T10:20:35.775Z,72.17
2023-04-18T10:23:42.218Z,71.76
2023-04-18T10:26:13.122Z,71.27
2023-04-18T10:28:55.255Z,71.43
2023-04-18T10:31:25.178Z,73.36
2023-04-18T10:34:06.685Z,73.03
2023-04-18T10:36:52.465Z,73.13
2023-04-18T10:39:32.513Z,73.38
2023-04-18T10:42:12.513Z,71.77
2023-04-18T10:44:40.644Z,71.28
2023-04-18T10:47:28.444Z,71.86
2023-04-18T10:50:08.725Z,72.09
2023-04-18T10:52:38.703Z,71.05
2023-04-18T10:55:28.139Z,72.24
2023-04-18T10:57:58.026Z,71.95
2023-04-18T11:00:26.911Z,72.11
2023-04-18T11:03:00.741Z,72.98
2023-04-18T11:05:34.165Z,73.51
2023-04-18T11:08:06.365Z,73.84
2023-04-18T11:10:35.626Z,74.17
2023-04-18T11:13:16.926Z,75.02
2023-04-18T11:15:50.925Z,75.36
2023-04-18T11:18:23.939Z,74.68
2023-04-18T11:20:55.267Z,74.51
2023-04-18T11:23:25.151Z,73.54
2023-04-18T11:25:57.594Z,74.08
2023-04-18T11:28:33.634Z,74.41
2023-04-18T11:31:07.609Z,74.01
2023-04-18T11:33:39.121Z,75.13
2023-04-18T11:36:11.186Z,74.72
2023-04-18T11:38:41.769Z,74.67
2023-04-18T11:41:18.116Z,75.25
2023-04-18T11:43:55.512Z,75.38
2023-04-18T11:46:25.577Z,75.94
2023-04-18T11:49:02.330Z,74.96
2023-04-18T11:51:41.889Z,75.27
2023-04-18T11:54:43.729Z,74.87
2023-04-18T11:57:24.725Z,73.71
2023-04-18T12:00:01.322Z,73.55
2023-04-18T12:02:46.098Z,74.13
2023-04-18T12:05:27.676Z,73.90
2023-04-18T12:07:59.519Z,74.71
2023-04-18T12:10:31.927Z,75.24
2023-04-18T12:13:03.416Z,74.43
2023-04-18T12:15:41.193Z,75.17
2023-04-18T12:18:13.144Z,74.11
2023-04-18T12:20:47.276Z,74.66
2023-04-18T12:23:30.868Z,74.56
2023-04-18T12:26:00.976Z,75.62
2023-04-18T12:28:33.744Z,74.67
2023-04-18T12:31:09.076Z,75.38
2023-04-18T12:33:46.170Z,74.50
2023-04-18T12:36:16.920Z,76.25
2023-04-18T12:38:52.531Z,76.35
2023-04-18T12:41:21.893Z,75.93
2023-04-18T12:44:00.590Z,76.64
2023-04-18T12:46:34.162Z,76.69
2023-04-18T12:49:05.042Z,76.93
2023-04-18T12:51:36.293Z,77.52
2023-04-18T12:54:05.157Z,77.32
2023-04-18T12:56:44.850Z,78.08
2023-04-18T12:59:15.334Z,78.05
2023-04-18T13:01:58.064Z,78.82
2023-04-18T13:04:35.894Z,79.19
2023-04-18T13:07:10.760Z,78.56
2023-04-18T13:09:41.058Z,80.15
2023-04-18T13:12:13.303Z,79.86
2023-04-18T13:14:44.583Z,79.43
2023-04-18T13:17:26.318Z,79.98
2023-04-18T13:20:02.263Z,79.63
2023-04-18T13:22:32.095Z,80.53
2023-04-18T13:25:04.791Z,79.99
2023-04-18T13:27:34.346Z,78.24
2023-04-18T13:30:06.400Z,79.12
2023-04-18T13:32:41.279Z,79.44
2023-04-18T13:35:14.557Z,79.37
2023-04-18T13:37:47.665Z,79.19
2023-04-18T13:40:21.531Z,79.33
2023-04-18T13:42:55.425Z,79.49
2023-04-18T13:45:34.900Z,79.41
2023-04-18T13:48:20.628Z,80.00
2023-04-18T13:50:50.514Z,81.05
2023-04-18T13:53:21.475Z,81.25
2023-04-18T13:55:49.916Z,80.69
2023-04-18T13:58:18.428Z,81.86
2023-04-18T14:00:46.581Z,81.79
2023-04-18T14:03:30.978Z,81.34
2023-04-18T14:06:04.958Z,81.66
2023-04-18T14:08:34.324Z,82.24
2023-04-18T14:11:05.123Z,83.39
2023-04-18T14:13:34.679Z,82.17
2023-04-18T14:16:16.724Z,82.92
2023-04-18T14:18:49.076Z,82.69
2023-04-18T14:21:20.257Z,84.74
2023-04-18T14:23:49.528Z,84.67
2023-04-18T14:26:25.626Z,85.90
2023-04-18T14:29:02.137Z,85.07
2023-04-18T14:31:30.945Z,84.53
2023-04-18T14:34:12.107Z,84.48
2023-04-18T14:36:41.309Z,86.68
2023-04-18T14:39:24.724Z,87.45
2023-04-18T14:41:54.912Z,87.20
2023-04-18T14:44:26.232Z,87.02
2023-04-18T14:46:54.828Z,87.10
2023-04-18T14:49:32.754Z,87.20
2023-04-18T14:52:03.924Z,87.17
2023-04-18T14:54:40.383Z,86.70
2023-04-18T14:57:18.152Z,85.63
2023-04-18T14:59:47.565Z,86.64
2023-04-18T15:02:21.531Z,86.47
2023-04-18T15:04:53.789Z,86.20
2023-04-18T15:07:24.935Z,86.22
2023-04-18T15:09:56.543Z,86.94
2023-04-18T15:12:27.313Z,86.67
2023-04-18T15:15:01.260Z,87.26
2023-04-18T15:17:30.430Z,88.29
2023-04-18T15:20:09.490Z,88.88
2023-04-18T15:22:45.933Z,89.86
2023-04-18T15:25:28.150Z,91.23
2023-04-18T15:27:58.377Z,93.32
2023-04-18T15:30:28.186Z,92.27
2023-04-18T15:32:59.572Z,93.26
2023-04-18T15:35:32.522Z,92.81
2023-04-18T15:38:03.296Z,93.80
2023-04-18T15:40:34.080Z,95.83
2023-04-18T15:43:13.622Z,95.75
2023-04-18T15:45:47.076Z,95.07
2023-04-18T15:48:19.154Z,94.86
2023-04-18T15:50:55.560Z,95.83
2023-04-18T15:53:26.508Z,95.66
2023-04-18T15:55:57.462Z,96.69
2023-04-18T15:58:30.064Z,95.17
2023-04-18T16:00:59.418Z,94.45
2023-04-18T16:03:30.581Z,95.76
2023-04-18T16:06:03.057Z,97.17
2023-04-18T16:08:33.383Z,98.76
2023-04-18T16:11:08.320Z,100.00
2023-04-18T16:13:38.672Z,100.00
2023-04-18T16:16:07.783Z,100.00
2023-04-18T16:18:41.936Z,100.00
2023-04-18T16:21:15.582Z,100.00
2023-04-18T16:23:50.294Z,100.00
2023-04-18T16:26:21.623Z,100.00
2023-04-18T16:28:53.909Z,100.00
2023-04-18T16:31:28.410Z,100.00
2023-04-18T16:34:06.059Z,100.00
2023-04-18T16:36:35.781Z,100.00
2023-04-18T16:39:06.126Z,100.00
2023-04-18T16:41:47.693Z,100.00
2023-04-18T16:44:19.064Z,100.00
2023-04-18T16:46:49.111Z,100.00
2023-04-18T16:49:26.912Z,100.00
2023-04-18T16:52:05.843Z,100.00
2023-04-18T16:54:43.413Z,100.00
2023-04-18T16:57:12.243Z,100.00
2023-04-18T16:59:44.444Z,100.00
2023-04-18T17:02:16.855Z,100.00
2023-04-18T17:04:53.378Z,100.00
2023-04-18T17:07:24.279Z,100.00
2023-04-18T17:09:56.707Z,100.00
2023-04-18T17:12:41.673Z,100.00
2023-04-18T17:15:21.239Z,100.00
2023-04-18T17:17:57.442Z,100.00
2023-04-18T17:20:32.049Z,100.00
2023-04-18T17:23:05.477Z,100.00
2023-04-18T17:25:38.350Z,100.00
2023-04-18T17:28:20.032Z,100.00
2023-04-18T17:30:51.541Z,100.00
2023-04-18T17:33:29.616Z,100.00
2023-04-18T17:36:12.092Z,100.00
2023-04-18T17:38:52.022Z,100.00
2023-04-18T17:41:27.004Z,100.00
2023-04-18T17:43:59.477Z,100.00
2023-04-18T17:46:40.841Z,100.00
2023-04-18T17:49:11.310Z,100.00
2023-04-18T17:51:49.649Z,100.00
2023-04-18T17:54:25.345Z,100.00
2023-04-18T17:56:55.791Z,100.00
2023-04-18T17:59:30.179Z,100.00
2023-04-18T18:02:09.080Z,100.00
2023-04-18T18:04:47.379Z,100.00
2023-04-18T18:07:31.713Z,100.00
2023-04-18T18:10:21.495Z,100.00
2023-04-18T18:13:04.230Z,100.00
2023-04-18T18:15:35.651Z,100.00
2023-04-18T18:18:14.274Z,100.00
2023-04-18T18:20:45.471Z,100.00
2023-04-18T18:23:25.198Z,100.00
2023-04-18T18:26:17.113Z,100.00
2023-04-18T18:28:51.802Z,100.00
2023-04-18T18:31:29.446Z,100.00
2023-04-18T18:34:08.944Z,100.00
2023-04-18T18:36:40.557Z,100.00
2023-04-18T18:39:19.469Z,100.00
2023-04-18T18:42:02.443Z,100.00
2023-04-18T18:44:40.413Z,100.00
2023-04-18T18:47:24.800Z,100.00
2023-04-18T18:50:02.948Z,100.00
2023-04-18T18:52:48.204Z,100.00
2023-04-18T18:55:41.550Z,100.00
2023-04-18T18:58:24.608Z,100.00
2023-04-18T19:01:03.814Z,100.00
2023-04-18T19:03:32.556Z,100.00
2023-04-18T19:06:07.419Z,100.00
2023-04-18T19:08:47.322Z,100.00
2023-04-18T19:11:20.952Z,100.00
2023-04-18T19:14:11.309Z,100.00
2023-04-18T19:16:56.626Z,99.29
2023-04-18T19:19:30.056Z,99.60
2023-04-18T19:22:02.513Z,99.64
2023-04-18T19:24:45.606Z,99.63
2023-04-18T19:27:26.095Z,99.92
2023-04-18T19:29:58.297Z,100.00
2023-04-18T19:32:35.935Z,98.84
2023-04-18T19:35:19.064Z,98.85
2023-04-18T19:37:50.860Z,98.45
2023-04-18T19:40:36.695Z,98.00
2023-04-18T19:43:18.814Z,98.12
2023-04-18T19:46:05.822Z,99.00
2023-04-18T19:48:47.474Z,99.32
2023-04-18T19:51:32.544Z,98.71
2023-04-18T19:54:05.648Z,98.19
2023-04-18T19:56:38.237Z,96.28
2023-04-18T19:59:19.365Z,95.58
2023-04-18T20:02:06.029Z,95.39
2023-04-18T20:04:38.192Z,94.86
2023-04-18T20:07:17.370Z,94.08
2023-04-18T20:09:48.530Z,94.35
2023-04-18T20:12:22.936Z,94.79
2023-04-18T20:15:01.638Z,94.26
2023-04-18T20:17:35.135Z,94.10
2023-04-18T20:20:19.200Z,96.18
2023-04-18T20:23:03.215Z,97.34
2023-04-18T20:25:36.055Z,96.94
2023-04-18T20:28:08.165Z,97.33
2023-04-18T20:30:51.893Z,96.73
2023-04-18T20:33:28.222Z,97.31
2023-04-18T20:36:05.604Z,96.50
2023-04-18T20:38:37.701Z,96.97
2023-04-18T20:41:12.026Z,97.03
2023-04-18T20:44:03.264Z,96.42
2023-04-18T20:46:41.559Z,95.13
2023-04-18T20:49:19.310Z,95.76
2023-04-18T20:51:51.186Z,96.00
2023-04-18T20:54:35.664Z,95.57
2023-04-18T20:57:04.796Z,94.60
2023-04-18T20:59:39.469Z,95.08
2023-04-18T21:02:20.823Z,94.50
2023-04-18T21:04:53.352Z,94.57
2023-04-18T21:07:27.989Z,94.58
2023-04-18T21:09:57.557Z,94.73
2023-04-18T21:12:30.529Z,95.66
2023-04-18T21:15:06.500Z,94.20
2023-04-18T21:17:38.754Z,93.88
2023-04-18T21:20:10.698Z,94.32
2023-04-18T21:22:38.722Z,93.20
2023-04-18T21:25:07.903Z,93.77
2023-04-18T21:27:36.033Z,92.95
2023-04-18T21:30:05.230Z,91.49
2023-04-18T21:32:44.727Z,90.39
2023-04-18T21:35:22.620Z,91.25
2023-04-18T21:37:54.480Z,89.65
2023-04-18T21:40:26.768Z,88.57
2023-04-18T21:42:56.348Z,89.59
2023-04-18T21:45:36.539Z,89.66
2023-04-18T21:48:14.562Z,89.96
2023-04-18T21:50:48.829Z,88.54
2023-04-18T21:53:20.599Z,89.49
2023-04-18T21:55:49.368Z,90.13
2023-04-18T21:58:26.510Z,88.24
2023-04-18T22:00:55.593Z,87.39
2023-04-18T22:03:25.905Z,86.98
2023-04-18T22:06:00.264Z,87.04
2023-04-18T22:08:31.153Z,87.45
2023-04-18T22:11:00.607Z,87.69
2023-04-18T22:13:35.120Z,87.10
2023-04-18T22:16:17.604Z,86.61
2023-04-18T22:18:49.807Z,85.96
2023-04-18T22:21:19.969Z,87.32
2023-04-18T22:23:49.309Z,86.94
2023-04-18T22:26:31.250Z,86.10
2023-04-18T22:29:01.367Z,85.71
2023-04-18T22:31:32.761Z,86.85
2023-04-18T22:34:02.005Z,85.84
2023-04-18T22:36:40.467Z,84.65
2023-04-18T22:39:12.246Z,85.27
2023-04-18T22:41:46.301Z,85.33
2023-04-18T22:46:57.753Z,85.59
2023-04-18T22:49:29.832Z,86.02
2023-04-18T22:52:01.563Z,86.63
2023-04-18T22:54:31.077Z,87.07
2023-04-18T22:56:59.475Z,86.40
2023-04-18T22:59:30.175Z,85.62
2023-04-18T23:02:01.250Z,86.27
2023-04-18T23:04:40.850Z,86.49
2023-04-18T23:07:13.765Z,84.87
2023-04-18T23:09:47.830Z,84.82
2023-04-18T23:12:16.666Z,84.55
2023-04-18T23:14:50.402Z,84.72
2023-04-18T23:17:22.104Z,85.00
2023-04-18T23:19:55.224Z,85.40
2023-04-18T23:22:33.074Z,84.04
2023-04-18T23:25:03.491Z,85.67
2023-04-18T23:27:35.646Z,85.53
2023-04-18T23:30:04.915Z,85.22
2023-04-18T23:32:34.319Z,84.77
2023-04-18T23:35:04.368Z,85.71
2023-04-18T23:37:35.094Z,84.81
2023-04-18T23:40:06.966Z,84.81
2023-04-18T23:42:37.376Z,84.91
2023-04-18T23:45:14.795Z,84.33
2023-04-18T23:47:46.397Z,86.37
2023-04-18T23:50:17.631Z,85.79
2023-04-18T23:52:47.726Z,85.64
2023-04-18T23:55:19.146Z,85.31
2023-04-18T23:57:48.383Z,85.10
